sensor_id;sensor_type;location;lat;lon;timestamp;P1;durP1;ratioP1;P2;durP2;ratioP2
76548;SDS011;65391;52.068;4.542;2023-04-24T00:01:09;2.5;;;0.5;;
76548;SDS011;65391;52.068;4.542;2023-04-24T00:03:34;2.5;;;0.5;;
76548;SDS011;65391;52.068;4.542;2023-04-24T00:05:59;2.3;;;0.5;;
76548;SDS011;65391;52.068;4.542;2023-04-24T00:08:24;2.3;;;0.5;;
76548;SDS011;65391;52.068;4.542;2023-04-24T00:10:49;2.3;;;0.5;;
76548;SDS011;65391;52.068;4.542;2023-04-24T00:13:14;2.3;;;0.5;;
76548;SDS011;65391;52.068;4.542;2023-04-24T00:15:39;2;;;0.5;;
76548;SDS011;65391;52.068;4.542;2023-04-24T00:18:04;2;;;0.5;;
76548;SDS011;65391;52.068;4.542;2023-04-24T00:20:29;2;;;0.5;;
76548;SDS011;65391;52.068;4.542;2023-04-24T00:22:54;2;;;0.5;;
76548;SDS011;65391;52.068;4.542;2023-04-24T00:25:19;2;;;0.6;;
76548;SDS011;65391;52.068;4.542;2023-04-24T00:27:44;2;;;0.6;;
76548;SDS011;65391;52.068;4.542;2023-04-24T00:30:09;2;;;0.6;;
76548;SDS011;65391;52.068;4.542;2023-04-24T00:32:34;2;;;0.6;;
76548;SDS011;65391;52.068;4.542;2023-04-24T00:34:59;1.2;;;0.5;;
76548;SDS011;65391;52.068;4.542;2023-04-24T00:37:24;1.2;;;0.5;;
76548;SDS011;65391;52.068;4.542;2023-04-24T00:39:49;1.2;;;0.5;;
76548;SDS011;65391;52.068;4.542;2023-04-24T00:42:14;1.2;;;0.5;;
76548;SDS011;65391;52.068;4.542;2023-04-24T00:44:39;2.9;;;0.5;;
76548;SDS011;65391;52.068;4.542;2023-04-24T00:47:04;2.9;;;0.5;;
76548;SDS011;65391;52.068;4.542;2023-04-24T00:49:29;2.9;;;0.5;;
76548;SDS011;65391;52.068;4.542;2023-04-24T00:51:54;2.9;;;0.5;;
76548;SDS011;65391;52.068;4.542;2023-04-24T00:54:19;2.7;;;0.4;;
76548;SDS011;65391;52.068;4.542;2023-04-24T00:56:44;2.7;;;0.4;;
76548;SDS011;65391;52.068;4.542;2023-04-24T00:59:09;2.7;;;0.4;;
76548;SDS011;65391;52.068;4.542;2023-04-24T01:01:34;2.7;;;0.4;;
76548;SDS011;65391;52.068;4.542;2023-04-24T01:03:59;1.6;;;0.4;;
76548;SDS011;65391;52.068;4.542;2023-04-24T01:06:24;1.6;;;0.4;;
76548;SDS011;65391;52.068;4.542;2023-04-24T01:08:49;1.6;;;0.4;;
76548;SDS011;65391;52.068;4.542;2023-04-24T01:11:14;1.6;;;0.4;;
76548;SDS011;65391;52.068;4.542;2023-04-24T01:13:39;1.6;;;0.4;;
76548;SDS011;65391;52.068;4.542;2023-04-24T01:16:04;2.4;;;0.5;;
76548;SDS011;65391;52.068;4.542;2023-04-24T01:18:29;2.4;;;0.5;;
76548;SDS011;65391;52.068;4.542;2023-04-24T01:20:57;2.4;;;0.5;;
76548;SDS011;65391;52.068;4.542;2023-04-24T01:23:19;2.4;;;0.5;;
76548;SDS011;65391;52.068;4.542;2023-04-24T01:25:44;3.1;;;0.7;;
76548;SDS011;65391;52.068;4.542;2023-04-24T01:28:09;3.1;;;0.7;;
76548;SDS011;65391;52.068;4.542;2023-04-24T01:30:34;3.1;;;0.7;;
76548;SDS011;65391;52.068;4.542;2023-04-24T01:32:59;3.1;;;0.7;;
76548;SDS011;65391;52.068;4.542;2023-04-24T01:35:24;1.8;;;0.6;;
76548;SDS011;65391;52.068;4.542;2023-04-24T01:37:49;1.8;;;0.6;;
76548;SDS011;65391;52.068;4.542;2023-04-24T01:40:14;1.8;;;0.6;;
76548;SDS011;65391;52.068;4.542;2023-04-24T01:42:40;1.8;;;0.6;;
76548;SDS011;65391;52.068;4.542;2023-04-24T01:45:05;1.3;;;0.5;;
76548;SDS011;65391;52.068;4.542;2023-04-24T01:47:29;1.3;;;0.5;;
76548;SDS011;65391;52.068;4.542;2023-04-24T01:49:54;1.3;;;0.5;;
76548;SDS011;65391;52.068;4.542;2023-04-24T01:52:19;1.3;;;0.5;;
76548;SDS011;65391;52.068;4.542;2023-04-24T01:54:44;1.3;;;0.5;;
76548;SDS011;65391;52.068;4.542;2023-04-24T01:57:09;1.3;;;0.5;;
76548;SDS011;65391;52.068;4.542;2023-04-24T01:59:34;1.3;;;0.5;;
76548;SDS011;65391;52.068;4.542;2023-04-24T02:01:59;1.3;;;0.5;;
76548;SDS011;65391;52.068;4.542;2023-04-24T02:04:24;1.4;;;0.3;;
76548;SDS011;65391;52.068;4.542;2023-04-24T02:06:49;1.4;;;0.3;;
76548;SDS011;65391;52.068;4.542;2023-04-24T02:09:14;1.4;;;0.3;;
76548;SDS011;65391;52.068;4.542;2023-04-24T02:11:39;1.4;;;0.3;;
76548;SDS011;65391;52.068;4.542;2023-04-24T02:14:04;0.9;;;0.5;;
76548;SDS011;65391;52.068;4.542;2023-04-24T02:16:29;0.9;;;0.5;;
76548;SDS011;65391;52.068;4.542;2023-04-24T02:18:54;0.9;;;0.5;;
76548;SDS011;65391;52.068;4.542;2023-04-24T02:21:19;0.9;;;0.5;;
76548;SDS011;65391;52.068;4.542;2023-04-24T02:23:44;0.9;;;0.5;;
76548;SDS011;65391;52.068;4.542;2023-04-24T02:26:10;1.7;;;0.6;;
76548;SDS011;65391;52.068;4.542;2023-04-24T02:28:34;1.7;;;0.6;;
76548;SDS011;65391;52.068;4.542;2023-04-24T02:30:59;1.7;;;0.6;;
76548;SDS011;65391;52.068;4.542;2023-04-24T02:33:24;1.7;;;0.6;;
76548;SDS011;65391;52.068;4.542;2023-04-24T02:35:49;2.1;;;0.4;;
76548;SDS011;65391;52.068;4.542;2023-04-24T02:38:14;2.1;;;0.4;;
76548;SDS011;65391;52.068;4.542;2023-04-24T02:40:39;2.1;;;0.4;;
76548;SDS011;65391;52.068;4.542;2023-04-24T02:43:04;2.1;;;0.4;;
76548;SDS011;65391;52.068;4.542;2023-04-24T02:45:29;1.1;;;0.3;;
76548;SDS011;65391;52.068;4.542;2023-04-24T02:47:54;1.1;;;0.3;;
76548;SDS011;65391;52.068;4.542;2023-04-24T02:50:19;1.1;;;0.3;;
76548;SDS011;65391;52.068;4.542;2023-04-24T02:52:44;1.1;;;0.3;;
76548;SDS011;65391;52.068;4.542;2023-04-24T02:55:09;1.1;;;0.3;;
76548;SDS011;65391;52.068;4.542;2023-04-24T02:57:35;1.1;;;0.3;;
76548;SDS011;65391;52.068;4.542;2023-04-24T02:59:59;1.1;;;0.3;;
76548;SDS011;65391;52.068;4.542;2023-04-24T03:02:24;1.1;;;0.3;;
76548;SDS011;65391;52.068;4.542;2023-04-24T03:04:49;2.4;;;0.4;;
76548;SDS011;65391;52.068;4.542;2023-04-24T03:07:14;2.4;;;0.4;;
76548;SDS011;65391;52.068;4.542;2023-04-24T03:09:39;2.4;;;0.4;;
76548;SDS011;65391;52.068;4.542;2023-04-24T03:12:04;2.4;;;0.4;;
76548;SDS011;65391;52.068;4.542;2023-04-24T03:14:29;1.4;;;0.3;;
76548;SDS011;65391;52.068;4.542;2023-04-24T03:16:54;1.4;;;0.3;;
76548;SDS011;65391;52.068;4.542;2023-04-24T03:19:19;1.4;;;0.3;;
76548;SDS011;65391;52.068;4.542;2023-04-24T03:21:44;1.4;;;0.3;;
76548;SDS011;65391;52.068;4.542;2023-04-24T03:24:09;0.6;;;0.2;;
76548;SDS011;65391;52.068;4.542;2023-04-24T03:26:34;0.6;;;0.2;;
76548;SDS011;65391;52.068;4.542;2023-04-24T03:28:59;0.6;;;0.2;;
76548;SDS011;65391;52.068;4.542;2023-04-24T03:31:24;0.6;;;0.2;;
76548;SDS011;65391;52.068;4.542;2023-04-24T03:33:49;0.6;;;0.2;;
76548;SDS011;65391;52.068;4.542;2023-04-24T03:36:14;1.7;;;0.2;;
76548;SDS011;65391;52.068;4.542;2023-04-24T03:38:40;1.7;;;0.2;;
76548;SDS011;65391;52.068;4.542;2023-04-24T03:41:04;1.7;;;0.2;;
76548;SDS011;65391;52.068;4.542;2023-04-24T03:43:29;1.7;;;0.2;;
76548;SDS011;65391;52.068;4.542;2023-04-24T03:45:54;2.8;;;0.4;;
76548;SDS011;65391;52.068;4.542;2023-04-24T03:48:19;2.8;;;0.4;;
76548;SDS011;65391;52.068;4.542;2023-04-24T03:50:44;2.8;;;0.4;;
76548;SDS011;65391;52.068;4.542;2023-04-24T03:53:09;2.8;;;0.4;;
76548;SDS011;65391;52.068;4.542;2023-04-24T03:55:34;1.1;;;0.4;;
76548;SDS011;65391;52.068;4.542;2023-04-24T03:57:59;1.1;;;0.4;;
76548;SDS011;65391;52.068;4.542;2023-04-24T04:00:24;1.1;;;0.4;;
76548;SDS011;65391;52.068;4.542;2023-04-24T04:02:49;1.1;;;0.4;;
76548;SDS011;65391;52.068;4.542;2023-04-24T04:05:14;1.9;;;0.4;;
76548;SDS011;65391;52.068;4.542;2023-04-24T04:07:39;1.9;;;0.4;;
76548;SDS011;65391;52.068;4.542;2023-04-24T04:10:05;1.9;;;0.4;;
76548;SDS011;65391;52.068;4.542;2023-04-24T04:12:29;1.9;;;0.4;;
76548;SDS011;65391;52.068;4.542;2023-04-24T04:14:54;1.1;;;0.3;;
76548;SDS011;65391;52.068;4.542;2023-04-24T04:17:19;1.1;;;0.3;;
76548;SDS011;65391;52.068;4.542;2023-04-24T04:19:44;1.1;;;0.3;;
76548;SDS011;65391;52.068;4.542;2023-04-24T04:22:09;1.1;;;0.3;;
76548;SDS011;65391;52.068;4.542;2023-04-24T04:24:34;1.4;;;0.1;;
76548;SDS011;65391;52.068;4.542;2023-04-24T04:26:59;1.4;;;0.1;;
76548;SDS011;65391;52.068;4.542;2023-04-24T04:29:24;1.4;;;0.1;;
76548;SDS011;65391;52.068;4.542;2023-04-24T04:31:49;1.4;;;0.1;;
76548;SDS011;65391;52.068;4.542;2023-04-24T04:34:14;1.2;;;0.5;;
76548;SDS011;65391;52.068;4.542;2023-04-24T04:36:40;1.2;;;0.5;;
76548;SDS011;65391;52.068;4.542;2023-04-24T04:39:04;1.2;;;0.5;;
76548;SDS011;65391;52.068;4.542;2023-04-24T04:41:29;1.2;;;0.5;;
76548;SDS011;65391;52.068;4.542;2023-04-24T04:43:55;1.2;;;0.5;;
76548;SDS011;65391;52.068;4.542;2023-04-24T04:46:19;7.9;;;1.2;;
76548;SDS011;65391;52.068;4.542;2023-04-24T04:48:45;7.9;;;1.2;;
76548;SDS011;65391;52.068;4.542;2023-04-24T04:51:09;7.9;;;1.2;;
76548;SDS011;65391;52.068;4.542;2023-04-24T04:53:34;7.9;;;1.2;;
76548;SDS011;65391;52.068;4.542;2023-04-24T04:55:59;4.9;;;2.1;;
76548;SDS011;65391;52.068;4.542;2023-04-24T04:58:25;4.9;;;2.1;;
76548;SDS011;65391;52.068;4.542;2023-04-24T05:00:49;4.9;;;2.1;;
76548;SDS011;65391;52.068;4.542;2023-04-24T05:03:15;4.9;;;2.1;;
76548;SDS011;65391;52.068;4.542;2023-04-24T05:05:39;4.5;;;1.7;;
76548;SDS011;65391;52.068;4.542;2023-04-24T05:08:04;4.5;;;1.7;;
76548;SDS011;65391;52.068;4.542;2023-04-24T05:10:29;4.5;;;1.7;;
76548;SDS011;65391;52.068;4.542;2023-04-24T05:12:54;4.5;;;1.7;;
76548;SDS011;65391;52.068;4.542;2023-04-24T05:15:19;8.6;;;4.2;;
76548;SDS011;65391;52.068;4.542;2023-04-24T05:17:45;8.6;;;4.2;;
76548;SDS011;65391;52.068;4.542;2023-04-24T05:20:10;8.6;;;4.2;;
76548;SDS011;65391;52.068;4.542;2023-04-24T05:22:34;8.6;;;4.2;;
76548;SDS011;65391;52.068;4.542;2023-04-24T05:25:00;14;;;6.4;;
76548;SDS011;65391;52.068;4.542;2023-04-24T05:27:25;14;;;6.4;;
76548;SDS011;65391;52.068;4.542;2023-04-24T05:29:50;14;;;6.4;;
76548;SDS011;65391;52.068;4.542;2023-04-24T05:32:15;14;;;6.4;;
76548;SDS011;65391;52.068;4.542;2023-04-24T05:34:40;12.8;;;5.4;;
76548;SDS011;65391;52.068;4.542;2023-04-24T05:37:05;12.8;;;5.4;;
76548;SDS011;65391;52.068;4.542;2023-04-24T05:39:30;12.8;;;5.4;;
76548;SDS011;65391;52.068;4.542;2023-04-24T05:41:55;12.8;;;5.4;;
76548;SDS011;65391;52.068;4.542;2023-04-24T05:44:20;14.7;;;5.1;;
76548;SDS011;65391;52.068;4.542;2023-04-24T05:46:45;14.7;;;5.1;;
76548;SDS011;65391;52.068;4.542;2023-04-24T05:49:10;14.7;;;5.1;;
76548;SDS011;65391;52.068;4.542;2023-04-24T05:51:35;14.7;;;5.1;;
76548;SDS011;65391;52.068;4.542;2023-04-24T05:54:00;14.7;;;5.1;;
76548;SDS011;65391;52.068;4.542;2023-04-24T05:56:25;13.1;;;5.2;;
76548;SDS011;65391;52.068;4.542;2023-04-24T05:58:50;13.1;;;5.2;;
76548;SDS011;65391;52.068;4.542;2023-04-24T06:01:15;13.1;;;5.2;;
76548;SDS011;65391;52.068;4.542;2023-04-24T06:03:40;13.1;;;5.2;;
76548;SDS011;65391;52.068;4.542;2023-04-24T06:06:05;13.3;;;5.5;;
76548;SDS011;65391;52.068;4.542;2023-04-24T06:08:30;13.3;;;5.5;;
76548;SDS011;65391;52.068;4.542;2023-04-24T06:10:55;13.3;;;5.5;;
76548;SDS011;65391;52.068;4.542;2023-04-24T06:13:20;13.3;;;5.5;;
76548;SDS011;65391;52.068;4.542;2023-04-24T06:15:45;12.2;;;3.8;;
76548;SDS011;65391;52.068;4.542;2023-04-24T06:18:10;12.2;;;3.8;;
76548;SDS011;65391;52.068;4.542;2023-04-24T06:20:35;12.2;;;3.8;;
76548;SDS011;65391;52.068;4.542;2023-04-24T06:23:00;12.2;;;3.8;;
76548;SDS011;65391;52.068;4.542;2023-04-24T06:25:25;11.3;;;3.7;;
76548;SDS011;65391;52.068;4.542;2023-04-24T06:27:50;11.3;;;3.7;;
76548;SDS011;65391;52.068;4.542;2023-04-24T06:30:15;11.3;;;3.7;;
76548;SDS011;65391;52.068;4.542;2023-04-24T06:32:40;11.3;;;3.7;;
76548;SDS011;65391;52.068;4.542;2023-04-24T06:35:06;13.3;;;3.6;;
76548;SDS011;65391;52.068;4.542;2023-04-24T06:37:30;13.3;;;3.6;;
76548;SDS011;65391;52.068;4.542;2023-04-24T06:39:55;13.3;;;3.6;;
76548;SDS011;65391;52.068;4.542;2023-04-24T06:42:20;13.3;;;3.6;;
76548;SDS011;65391;52.068;4.542;2023-04-24T06:44:45;12.5;;;3.4;;
76548;SDS011;65391;52.068;4.542;2023-04-24T06:47:10;12.5;;;3.4;;
76548;SDS011;65391;52.068;4.542;2023-04-24T06:49:35;12.5;;;3.4;;
76548;SDS011;65391;52.068;4.542;2023-04-24T06:52:00;12.5;;;3.4;;
76548;SDS011;65391;52.068;4.542;2023-04-24T06:54:25;15.4;;;4.6;;
76548;SDS011;65391;52.068;4.542;2023-04-24T06:56:50;15.4;;;4.6;;
76548;SDS011;65391;52.068;4.542;2023-04-24T06:59:15;15.4;;;4.6;;
76548;SDS011;65391;52.068;4.542;2023-04-24T07:01:40;15.4;;;4.6;;
76548;SDS011;65391;52.068;4.542;2023-04-24T07:04:05;15.4;;;4.6;;
76548;SDS011;65391;52.068;4.542;2023-04-24T07:06:30;13.3;;;4;;
76548;SDS011;65391;52.068;4.542;2023-04-24T07:08:55;13.3;;;4;;
76548;SDS011;65391;52.068;4.542;2023-04-24T07:11:20;13.3;;;4;;
76548;SDS011;65391;52.068;4.542;2023-04-24T07:13:45;13.3;;;4;;
76548;SDS011;65391;52.068;4.542;2023-04-24T07:16:10;11.7;;;2;;
76548;SDS011;65391;52.068;4.542;2023-04-24T07:18:35;11.7;;;2;;
76548;SDS011;65391;52.068;4.542;2023-04-24T07:21:00;11.7;;;2;;
76548;SDS011;65391;52.068;4.542;2023-04-24T07:23:25;11.7;;;2;;
76548;SDS011;65391;52.068;4.542;2023-04-24T07:25:50;13.2;;;2.8;;
76548;SDS011;65391;52.068;4.542;2023-04-24T07:28:15;13.2;;;2.8;;
76548;SDS011;65391;52.068;4.542;2023-04-24T07:30:40;13.2;;;2.8;;
76548;SDS011;65391;52.068;4.542;2023-04-24T07:33:05;13.2;;;2.8;;
76548;SDS011;65391;52.068;4.542;2023-04-24T07:35:30;11.4;;;2.1;;
76548;SDS011;65391;52.068;4.542;2023-04-24T07:37:55;11.4;;;2.1;;
76548;SDS011;65391;52.068;4.542;2023-04-24T07:40:20;11.4;;;2.1;;
76548;SDS011;65391;52.068;4.542;2023-04-24T07:42:45;11.4;;;2.1;;
76548;SDS011;65391;52.068;4.542;2023-04-24T07:45:10;11.2;;;2.7;;
76548;SDS011;65391;52.068;4.542;2023-04-24T07:47:35;11.2;;;2.7;;
76548;SDS011;65391;52.068;4.542;2023-04-24T07:50:00;11.2;;;2.7;;
76548;SDS011;65391;52.068;4.542;2023-04-24T07:52:25;11.2;;;2.7;;
76548;SDS011;65391;52.068;4.542;2023-04-24T07:54:50;12.2;;;2.4;;
76548;SDS011;65391;52.068;4.542;2023-04-24T07:57:15;12.2;;;2.4;;
76548;SDS011;65391;52.068;4.542;2023-04-24T07:59:40;12.2;;;2.4;;
76548;SDS011;65391;52.068;4.542;2023-04-24T08:02:05;12.2;;;2.4;;
76548;SDS011;65391;52.068;4.542;2023-04-24T08:04:30;9.7;;;2.7;;
76548;SDS011;65391;52.068;4.542;2023-04-24T08:06:55;9.7;;;2.7;;
76548;SDS011;65391;52.068;4.542;2023-04-24T08:09:20;9.7;;;2.7;;
76548;SDS011;65391;52.068;4.542;2023-04-24T08:11:45;9.7;;;2.7;;
76548;SDS011;65391;52.068;4.542;2023-04-24T08:14:10;9.7;;;2.7;;
76548;SDS011;65391;52.068;4.542;2023-04-24T08:16:35;13.2;;;2.4;;
76548;SDS011;65391;52.068;4.542;2023-04-24T08:19:00;13.2;;;2.4;;
76548;SDS011;65391;52.068;4.542;2023-04-24T08:21:25;13.2;;;2.4;;
76548;SDS011;65391;52.068;4.542;2023-04-24T08:23:50;13.2;;;2.4;;
76548;SDS011;65391;52.068;4.542;2023-04-24T08:26:15;6.7;;;1.8;;
76548;SDS011;65391;52.068;4.542;2023-04-24T08:28:40;6.7;;;1.8;;
76548;SDS011;65391;52.068;4.542;2023-04-24T08:31:05;6.7;;;1.8;;
76548;SDS011;65391;52.068;4.542;2023-04-24T08:33:30;6.7;;;1.8;;
76548;SDS011;65391;52.068;4.542;2023-04-24T08:35:55;4.6;;;1.4;;
76548;SDS011;65391;52.068;4.542;2023-04-24T08:38:20;4.6;;;1.4;;
76548;SDS011;65391;52.068;4.542;2023-04-24T08:40:45;4.6;;;1.4;;
76548;SDS011;65391;52.068;4.542;2023-04-24T08:43:10;4.6;;;1.4;;
76548;SDS011;65391;52.068;4.542;2023-04-24T08:45:35;5;;;1.6;;
76548;SDS011;65391;52.068;4.542;2023-04-24T08:48:00;5;;;1.6;;
76548;SDS011;65391;52.068;4.542;2023-04-24T08:50:25;5;;;1.6;;
76548;SDS011;65391;52.068;4.542;2023-04-24T08:52:50;5;;;1.6;;
76548;SDS011;65391;52.068;4.542;2023-04-24T08:55:15;12.4;;;1.9;;
76548;SDS011;65391;52.068;4.542;2023-04-24T08:57:40;12.4;;;1.9;;
76548;SDS011;65391;52.068;4.542;2023-04-24T09:00:06;12.4;;;1.9;;
76548;SDS011;65391;52.068;4.542;2023-04-24T09:02:30;12.4;;;1.9;;
76548;SDS011;65391;52.068;4.542;2023-04-24T09:04:55;9.1;;;1.2;;
76548;SDS011;65391;52.068;4.542;2023-04-24T09:07:20;9.1;;;1.2;;
76548;SDS011;65391;52.068;4.542;2023-04-24T09:09:45;9.1;;;1.2;;
76548;SDS011;65391;52.068;4.542;2023-04-24T09:12:10;9.1;;;1.2;;
76548;SDS011;65391;52.068;4.542;2023-04-24T09:14:35;4.1;;;1;;
76548;SDS011;65391;52.068;4.542;2023-04-24T09:17:00;4.1;;;1;;
76548;SDS011;65391;52.068;4.542;2023-04-24T09:19:25;4.1;;;1;;
76548;SDS011;65391;52.068;4.542;2023-04-24T09:21:52;4.1;;;1;;
76548;SDS011;65391;52.068;4.542;2023-04-24T09:24:17;4.1;;;1;;
76548;SDS011;65391;52.068;4.542;2023-04-24T09:26:40;9.2;;;1;;
76548;SDS011;65391;52.068;4.542;2023-04-24T09:29:05;9.2;;;1;;
76548;SDS011;65391;52.068;4.542;2023-04-24T09:31:30;9.2;;;1;;
76548;SDS011;65391;52.068;4.542;2023-04-24T09:33:56;9.2;;;1;;
76548;SDS011;65391;52.068;4.542;2023-04-24T09:36:26;4.8;;;1;;
76548;SDS011;65391;52.068;4.542;2023-04-24T09:38:45;4.8;;;1;;
76548;SDS011;65391;52.068;4.542;2023-04-24T09:41:13;4.8;;;1;;
76548;SDS011;65391;52.068;4.542;2023-04-24T09:43:35;4.8;;;1;;
76548;SDS011;65391;52.068;4.542;2023-04-24T09:46:04;2.2;;;0.4;;
76548;SDS011;65391;52.068;4.542;2023-04-24T09:48:33;2.2;;;0.4;;
76548;SDS011;65391;52.068;4.542;2023-04-24T09:50:51;2.2;;;0.4;;
76548;SDS011;65391;52.068;4.542;2023-04-24T09:53:15;2.2;;;0.4;;
76548;SDS011;65391;52.068;4.542;2023-04-24T09:55:42;3.2;;;0.7;;
76548;SDS011;65391;52.068;4.542;2023-04-24T09:58:05;3.2;;;0.7;;
76548;SDS011;65391;52.068;4.542;2023-04-24T10:00:31;3.2;;;0.7;;
76548;SDS011;65391;52.068;4.542;2023-04-24T10:02:56;3.2;;;0.7;;
76548;SDS011;65391;52.068;4.542;2023-04-24T10:05:23;4.9;;;0.8;;
76548;SDS011;65391;52.068;4.542;2023-04-24T10:07:45;4.9;;;0.8;;
76548;SDS011;65391;52.068;4.542;2023-04-24T10:10:10;4.9;;;0.8;;
76548;SDS011;65391;52.068;4.542;2023-04-24T10:12:35;4.9;;;0.8;;
76548;SDS011;65391;52.068;4.542;2023-04-24T10:15:00;1.6;;;0.4;;
76548;SDS011;65391;52.068;4.542;2023-04-24T10:17:25;1.6;;;0.4;;
76548;SDS011;65391;52.068;4.542;2023-04-24T10:19:51;1.6;;;0.4;;
76548;SDS011;65391;52.068;4.542;2023-04-24T10:22:15;1.6;;;0.4;;
76548;SDS011;65391;52.068;4.542;2023-04-24T10:24:40;2;;;0.4;;
76548;SDS011;65391;52.068;4.542;2023-04-24T10:27:05;2;;;0.4;;
76548;SDS011;65391;52.068;4.542;2023-04-24T10:29:30;2;;;0.4;;
76548;SDS011;65391;52.068;4.542;2023-04-24T10:31:55;2;;;0.4;;
76548;SDS011;65391;52.068;4.542;2023-04-24T10:34:20;2;;;0.4;;
76548;SDS011;65391;52.068;4.542;2023-04-24T10:36:47;4.7;;;0.8;;
76548;SDS011;65391;52.068;4.542;2023-04-24T10:39:13;4.7;;;0.8;;
76548;SDS011;65391;52.068;4.542;2023-04-24T10:41:36;4.7;;;0.8;;
76548;SDS011;65391;52.068;4.542;2023-04-24T10:44:04;4.7;;;0.8;;
76548;SDS011;65391;52.068;4.542;2023-04-24T10:46:27;11.1;;;1;;
76548;SDS011;65391;52.068;4.542;2023-04-24T10:48:52;11.1;;;1;;
76548;SDS011;65391;52.068;4.542;2023-04-24T10:51:15;11.1;;;1;;
76548;SDS011;65391;52.068;4.542;2023-04-24T10:53:40;11.1;;;1;;
76548;SDS011;65391;52.068;4.542;2023-04-24T10:56:06;8.6;;;1.3;;
76548;SDS011;65391;52.068;4.542;2023-04-24T10:58:38;8.6;;;1.3;;
76548;SDS011;65391;52.068;4.542;2023-04-24T11:00:56;8.6;;;1.3;;
76548;SDS011;65391;52.068;4.542;2023-04-24T11:03:25;8.6;;;1.3;;
76548;SDS011;65391;52.068;4.542;2023-04-24T11:05:49;3.3;;;1;;
76548;SDS011;65391;52.068;4.542;2023-04-24T11:08:11;3.3;;;1;;
76548;SDS011;65391;52.068;4.542;2023-04-24T11:10:39;3.3;;;1;;
76548;SDS011;65391;52.068;4.542;2023-04-24T11:13:01;3.3;;;1;;
76548;SDS011;65391;52.068;4.542;2023-04-24T11:15:25;7.8;;;1.2;;
76548;SDS011;65391;52.068;4.542;2023-04-24T11:17:50;7.8;;;1.2;;
76548;SDS011;65391;52.068;4.542;2023-04-24T11:20:17;7.8;;;1.2;;
76548;SDS011;65391;52.068;4.542;2023-04-24T11:22:40;7.8;;;1.2;;
76548;SDS011;65391;52.068;4.542;2023-04-24T11:25:06;7.4;;;1.2;;
76548;SDS011;65391;52.068;4.542;2023-04-24T11:27:31;7.4;;;1.2;;
76548;SDS011;65391;52.068;4.542;2023-04-24T11:29:59;7.4;;;1.2;;
76548;SDS011;65391;52.068;4.542;2023-04-24T11:32:25;7.4;;;1.2;;
76548;SDS011;65391;52.068;4.542;2023-04-24T11:34:47;7.5;;;1.1;;
76548;SDS011;65391;52.068;4.542;2023-04-24T11:37:10;7.5;;;1.1;;
76548;SDS011;65391;52.068;4.542;2023-04-24T11:39:36;7.5;;;1.1;;
76548;SDS011;65391;52.068;4.542;2023-04-24T11:42:02;7.5;;;1.1;;
76548;SDS011;65391;52.068;4.542;2023-04-24T11:44:25;7.5;;;1.1;;
76548;SDS011;65391;52.068;4.542;2023-04-24T11:46:50;7.4;;;1.9;;
76548;SDS011;65391;52.068;4.542;2023-04-24T11:49:15;7.4;;;1.9;;
76548;SDS011;65391;52.068;4.542;2023-04-24T11:51:40;7.4;;;1.9;;
76548;SDS011;65391;52.068;4.542;2023-04-24T11:54:07;7.4;;;1.9;;
76548;SDS011;65391;52.068;4.542;2023-04-24T11:56:30;10.7;;;2.1;;
76548;SDS011;65391;52.068;4.542;2023-04-24T11:58:55;10.7;;;2.1;;
76548;SDS011;65391;52.068;4.542;2023-04-24T12:01:20;10.7;;;2.1;;
76548;SDS011;65391;52.068;4.542;2023-04-24T12:03:47;10.7;;;2.1;;
76548;SDS011;65391;52.068;4.542;2023-04-24T12:06:11;9.8;;;2;;
76548;SDS011;65391;52.068;4.542;2023-04-24T12:08:36;9.8;;;2;;
76548;SDS011;65391;52.068;4.542;2023-04-24T12:11:01;9.8;;;2;;
76548;SDS011;65391;52.068;4.542;2023-04-24T12:13:25;9.8;;;2;;
76548;SDS011;65391;52.068;4.542;2023-04-24T12:15:50;11.5;;;1.9;;
76548;SDS011;65391;52.068;4.542;2023-04-24T12:18:15;11.5;;;1.9;;
76548;SDS011;65391;52.068;4.542;2023-04-24T12:20:40;11.5;;;1.9;;
76548;SDS011;65391;52.068;4.542;2023-04-24T12:23:05;11.5;;;1.9;;
76548;SDS011;65391;52.068;4.542;2023-04-24T12:25:31;9.1;;;2.5;;
76548;SDS011;65391;52.068;4.542;2023-04-24T12:28:08;9.1;;;2.5;;
76548;SDS011;65391;52.068;4.542;2023-04-24T12:30:21;9.1;;;2.5;;
76548;SDS011;65391;52.068;4.542;2023-04-24T12:32:46;9.1;;;2.5;;
76548;SDS011;65391;52.068;4.542;2023-04-24T12:35:11;15.9;;;2.6;;
76548;SDS011;65391;52.068;4.542;2023-04-24T12:37:35;15.9;;;2.6;;
76548;SDS011;65391;52.068;4.542;2023-04-24T12:40:03;15.9;;;2.6;;
76548;SDS011;65391;52.068;4.542;2023-04-24T12:42:26;15.9;;;2.6;;
76548;SDS011;65391;52.068;4.542;2023-04-24T12:44:55;13.3;;;2.5;;
76548;SDS011;65391;52.068;4.542;2023-04-24T12:47:15;13.3;;;2.5;;
76548;SDS011;65391;52.068;4.542;2023-04-24T12:49:40;13.3;;;2.5;;
76548;SDS011;65391;52.068;4.542;2023-04-24T12:52:05;13.3;;;2.5;;
76548;SDS011;65391;52.068;4.542;2023-04-24T12:54:32;13.3;;;2.5;;
76548;SDS011;65391;52.068;4.542;2023-04-24T12:56:55;11.4;;;2.7;;
76548;SDS011;65391;52.068;4.542;2023-04-24T12:59:20;11.4;;;2.7;;
76548;SDS011;65391;52.068;4.542;2023-04-24T13:01:45;11.4;;;2.7;;
76548;SDS011;65391;52.068;4.542;2023-04-24T13:04:10;11.4;;;2.7;;
76548;SDS011;65391;52.068;4.542;2023-04-24T13:06:35;13.4;;;3;;
76548;SDS011;65391;52.068;4.542;2023-04-24T13:09:00;13.4;;;3;;
76548;SDS011;65391;52.068;4.542;2023-04-24T13:11:26;13.4;;;3;;
76548;SDS011;65391;52.068;4.542;2023-04-24T13:13:51;13.4;;;3;;
76548;SDS011;65391;52.068;4.542;2023-04-24T13:16:16;11.8;;;2.9;;
76548;SDS011;65391;52.068;4.542;2023-04-24T13:18:41;11.8;;;2.9;;
76548;SDS011;65391;52.068;4.542;2023-04-24T13:21:06;11.8;;;2.9;;
76548;SDS011;65391;52.068;4.542;2023-04-24T13:23:31;11.8;;;2.9;;
76548;SDS011;65391;52.068;4.542;2023-04-24T13:25:56;6.5;;;1.8;;
76548;SDS011;65391;52.068;4.542;2023-04-24T13:28:21;6.5;;;1.8;;
76548;SDS011;65391;52.068;4.542;2023-04-24T13:30:46;6.5;;;1.8;;
76548;SDS011;65391;52.068;4.542;2023-04-24T13:33:11;6.5;;;1.8;;
76548;SDS011;65391;52.068;4.542;2023-04-24T13:35:36;7.2;;;2.3;;
76548;SDS011;65391;52.068;4.542;2023-04-24T13:38:01;7.2;;;2.3;;
76548;SDS011;65391;52.068;4.542;2023-04-24T13:40:26;7.2;;;2.3;;
76548;SDS011;65391;52.068;4.542;2023-04-24T13:42:51;7.2;;;2.3;;
76548;SDS011;65391;52.068;4.542;2023-04-24T13:45:16;8.6;;;2.7;;
76548;SDS011;65391;52.068;4.542;2023-04-24T13:47:41;8.6;;;2.7;;
76548;SDS011;65391;52.068;4.542;2023-04-24T13:50:07;8.6;;;2.7;;
76548;SDS011;65391;52.068;4.542;2023-04-24T13:52:31;8.6;;;2.7;;
76548;SDS011;65391;52.068;4.542;2023-04-24T13:54:56;8.5;;;2.4;;
76548;SDS011;65391;52.068;4.542;2023-04-24T13:57:21;8.5;;;2.4;;
76548;SDS011;65391;52.068;4.542;2023-04-24T13:59:46;8.5;;;2.4;;
76548;SDS011;65391;52.068;4.542;2023-04-24T14:02:11;8.5;;;2.4;;
76548;SDS011;65391;52.068;4.542;2023-04-24T14:04:36;8.5;;;2.4;;
76548;SDS011;65391;52.068;4.542;2023-04-24T14:07:01;8.9;;;2.4;;
76548;SDS011;65391;52.068;4.542;2023-04-24T14:09:26;8.9;;;2.4;;
76548;SDS011;65391;52.068;4.542;2023-04-24T14:11:51;8.9;;;2.4;;
76548;SDS011;65391;52.068;4.542;2023-04-24T14:14:16;8.9;;;2.4;;
76548;SDS011;65391;52.068;4.542;2023-04-24T14:16:41;12.9;;;2.7;;
76548;SDS011;65391;52.068;4.542;2023-04-24T14:19:06;12.9;;;2.7;;
76548;SDS011;65391;52.068;4.542;2023-04-24T14:21:31;12.9;;;2.7;;
76548;SDS011;65391;52.068;4.542;2023-04-24T14:23:56;12.9;;;2.7;;
76548;SDS011;65391;52.068;4.542;2023-04-24T14:26:21;8.5;;;3.1;;
76548;SDS011;65391;52.068;4.542;2023-04-24T14:28:46;8.5;;;3.1;;
76548;SDS011;65391;52.068;4.542;2023-04-24T14:31:11;8.5;;;3.1;;
76548;SDS011;65391;52.068;4.542;2023-04-24T14:33:36;8.5;;;3.1;;
76548;SDS011;65391;52.068;4.542;2023-04-24T14:36:01;14.1;;;3.5;;
76548;SDS011;65391;52.068;4.542;2023-04-24T14:38:26;14.1;;;3.5;;
76548;SDS011;65391;52.068;4.542;2023-04-24T14:40:51;14.1;;;3.5;;
76548;SDS011;65391;52.068;4.542;2023-04-24T14:43:16;14.1;;;3.5;;
76548;SDS011;65391;52.068;4.542;2023-04-24T14:45:41;17.5;;;4.4;;
76548;SDS011;65391;52.068;4.542;2023-04-24T14:48:06;17.5;;;4.4;;
76548;SDS011;65391;52.068;4.542;2023-04-24T14:50:31;17.5;;;4.4;;
76548;SDS011;65391;52.068;4.542;2023-04-24T14:52:56;17.5;;;4.4;;
76548;SDS011;65391;52.068;4.542;2023-04-24T14:55:21;14;;;3.4;;
76548;SDS011;65391;52.068;4.542;2023-04-24T14:57:46;14;;;3.4;;
76548;SDS011;65391;52.068;4.542;2023-04-24T15:00:12;14;;;3.4;;